Aérodrome :
LOGIN :

S'inscrire | Disclaimer

   EN    FR    IT 

 










Légende :    VFR   VFR Marginal   IFR   IFR Intensif   IFR Très Intensif
Visi : 
Plafond : 
>= 8 km
>= 3000ft
5 à 8 km
1000 à 3000 ft
1500m à 5 km
500 à 1000 ft
800 à 1500m
200 à 500 ft
< 800m
< 200 ft
Symboles :   Orages  Brouillard  Fortes neiges  Fortes précipitations  Vent > 20 kt
SIGMETs :   Divers  Orages  Givrage  Turbulence  Onde Orograph.  Cendres Volcan.







- Altitude de l'aérodrome : 7 ft
- Code IATA : ESH
- Voir les cartes d'approche


EGKA - Shoreham

DERNIER METAR :
  • 221620Z 25006KT 9999 -SHRA FEW014 BKN025 04/00 Q0999

METARs EXPIRÉS :
  • 221550Z 26005KT 9999 FEW014 BKN026 04/M00 Q0999
  • 221450Z 26006KT 9999 FEW016 05/02 Q1000
  • 221420Z 25006KT 9999 FEW020 06/01 Q1000
  • 221350Z 26006KT 9999 FEW020 06/01 Q1001

TAF TAF EGKA
Valide du 22 à 15h jusqu'au 22 à 19h UTC


221356Z 2215/2219 27009KT 9999 SCT025
TEMPO 2215/2219 6000 -SHRA BKN010
PROB30
TEMPO 2215/2219 3000 SHRA -SHRASN BKN005
ATIS : +44 1273 467 372
Pas de NOTAMs connus pour ce terrain.
1 SIGMET publié pour la FIR London (EGTT) :
 
Turbulence forte
EGTT SIGMET 02 VALID 221430/221830 EGRR
EGTT LONDON FIR SEV TURB FCST WI N5500 W00530 - N5500 W00400 - N5334 W00245 - N5124 W00151 - N5107 W00402 - N5355 W00530 - N5500 W00530 FL160/400 MOV E 15KT NC=



MET'MAP, la Météo Aéronautique d'un coup d'oeil ! - Copyright ORBIFLY Décembre 2007 - Disclaimer

ORBIFLY MET'MAP TEAM :

Programmation & Développement : Alexandra Zaïnal
Conception & Développement : Baudouin d'Aumeries
Co-Programmation & Développement : Marc-Olivier Méhu
Soutien technique & logistique : Manuel Goepfert

Contact : metmap@orbifly.com




SOURCES & CREDITS :

   NOAA